createdAt,value
2017-10-02T00:00:04.571Z,978.64
2017-10-02T00:01:13.879Z,978.52
2017-10-02T00:02:24.162Z,978.48
2017-10-02T00:03:34.434Z,978.45
2017-10-02T00:04:44.385Z,978.38
2017-10-02T00:05:54.664Z,978.39
2017-10-02T00:07:04.611Z,978.32
2017-10-02T00:08:14.885Z,978.35
2017-10-02T00:09:25.162Z,978.25
2017-10-02T00:10:35.439Z,978.28
2017-10-02T00:11:45.717Z,978.32
2017-10-02T00:12:55.987Z,978.31
2017-10-02T00:14:06.259Z,978.19
2017-10-02T00:15:16.208Z,978.16
2017-10-02T00:16:26.481Z,978.08
2017-10-02T00:17:36.429Z,978.09
2017-10-02T00:18:46.704Z,978.05
2017-10-02T00:19:56.654Z,978.08
2017-10-02T00:21:06.619Z,978.09
2017-10-02T00:22:16.886Z,978.03
2017-10-02T00:23:27.161Z,977.94
2017-10-02T00:24:37.105Z,978.07
2017-10-02T00:25:47.052Z,978.12
2017-10-02T00:26:57.328Z,978.06
2017-10-02T00:28:07.598Z,978.01
2017-10-02T00:29:17.865Z,978.08
2017-10-02T00:30:28.147Z,978.08
2017-10-02T00:31:38.094Z,978.15
2017-10-02T00:32:47.721Z,978.05
2017-10-02T00:33:57.672Z,977.9
2017-10-02T00:35:07.945Z,977.96
2017-10-02T00:36:18.211Z,977.86
2017-10-02T00:37:27.860Z,977.96
2017-10-02T00:38:38.127Z,977.94
2017-10-02T00:39:47.754Z,977.89
2017-10-02T00:40:58.023Z,977.95
2017-10-02T00:42:07.978Z,977.96
2017-10-02T00:43:17.926Z,977.95
2017-10-02T00:44:27.564Z,977.97
2017-10-02T00:45:37.515Z,977.93
2017-10-02T00:46:47.793Z,977.82
2017-10-02T00:47:57.740Z,977.8
2017-10-02T00:49:08.006Z,977.81
2017-10-02T00:50:18.279Z,977.74
2017-10-02T00:51:28.554Z,977.74
2017-10-02T00:52:38.820Z,977.74
2017-10-02T00:53:49.094Z,977.72
2017-10-02T00:54:59.051Z,977.71
2017-10-02T00:56:09.324Z,977.69
2017-10-02T00:57:19.596Z,977.6
2017-10-02T00:58:29.870Z,977.62
2017-10-02T00:59:40.143Z,977.57
2017-10-02T01:00:50.111Z,977.6
2017-10-02T01:02:00.382Z,977.49
2017-10-02T01:03:10.334Z,977.46
2017-10-02T01:04:20.604Z,977.43
2017-10-02T01:05:30.878Z,977.22
2017-10-02T01:06:40.828Z,977.36
2017-10-02T01:07:50.776Z,977.37
2017-10-02T01:09:00.407Z,977.41
2017-10-02T01:10:10.674Z,977.35
2017-10-02T01:11:20.972Z,977.22
2017-10-02T01:12:31.240Z,977.16
2017-10-02T01:13:41.507Z,977.26
2017-10-02T01:14:51.462Z,977.27
2017-10-02T01:16:01.734Z,977.17
2017-10-02T01:17:11.686Z,977.12
2017-10-02T01:18:21.313Z,977.18
2017-10-02T01:19:31.589Z,977.11
2017-10-02T01:20:41.869Z,977.12
2017-10-02T01:21:52.147Z,977.06
2017-10-02T01:23:02.423Z,977.06
2017-10-02T01:24:12.700Z,977.01
2017-10-02T01:25:22.649Z,977.09
2017-10-02T01:26:32.922Z,977.02
2017-10-02T01:27:42.873Z,976.99
2017-10-02T01:28:52.844Z,977.05
2017-10-02T01:30:03.116Z,976.99
2017-10-02T01:31:13.077Z,977.03
2017-10-02T01:32:23.354Z,976.94
2017-10-02T01:33:33.305Z,976.86
2017-10-02T01:34:43.591Z,976.87
2017-10-02T01:35:53.860Z,976.81
2017-10-02T01:37:03.485Z,976.84
2017-10-02T01:38:13.754Z,976.82
2017-10-02T01:39:24.028Z,976.76
2017-10-02T01:40:34.300Z,976.79
2017-10-02T01:41:43.929Z,976.78
2017-10-02T01:42:53.885Z,976.75
2017-10-02T01:44:04.165Z,976.65
2017-10-02T01:45:14.114Z,976.51
2017-10-02T01:46:23.742Z,976.56
2017-10-02T01:47:34.011Z,976.49
2017-10-02T01:48:43.961Z,976.4
2017-10-02T01:49:53.908Z,976.48
2017-10-02T01:51:04.179Z,976.33
2017-10-02T01:52:14.459Z,976.26
2017-10-02T01:53:24.728Z,976.37
2017-10-02T01:54:35.000Z,976.3
2017-10-02T01:55:45.266Z,976.33
2017-10-02T01:56:55.215Z,976.31
2017-10-02T01:58:04.842Z,976.15
2017-10-02T01:59:15.141Z,976.24
2017-10-02T02:00:25.432Z,976.08
2017-10-02T02:01:35.061Z,976.11
2017-10-02T02:02:45.015Z,976.1
2017-10-02T02:03:55.316Z,976.11
2017-10-02T02:05:05.268Z,976.03
2017-10-02T02:06:15.538Z,975.94
2017-10-02T02:07:25.817Z,975.99
2017-10-02T02:08:35.767Z,975.93
2017-10-02T02:09:46.048Z,975.82
2017-10-02T02:10:55.998Z,975.84
2017-10-02T02:12:05.946Z,975.74
2017-10-02T02:13:15.895Z,975.77
2017-10-02T02:14:26.168Z,975.61
2017-10-02T02:15:36.438Z,975.67
2017-10-02T02:16:46.384Z,975.62
2017-10-02T02:17:56.656Z,975.5
2017-10-02T02:19:06.933Z,975.54
2017-10-02T02:20:16.888Z,975.55
2017-10-02T02:21:27.458Z,975.55
2017-10-02T02:22:37.735Z,975.52
2017-10-02T02:23:48.033Z,975.45
2017-10-02T02:24:58.313Z,975.5
2017-10-02T02:26:08.597Z,975.53
2017-10-02T02:27:18.865Z,975.49
2017-10-02T02:28:29.154Z,975.39
2017-10-02T02:29:39.107Z,975.4
2017-10-02T02:30:48.745Z,975.42
2017-10-02T02:31:59.019Z,975.32
2017-10-02T02:33:08.971Z,975.27
2017-10-02T02:34:19.246Z,975.26
2017-10-02T02:35:29.193Z,975.03
2017-10-02T02:36:38.821Z,975.08
2017-10-02T02:37:48.782Z,975.1
2017-10-02T02:38:58.731Z,975.06
2017-10-02T02:40:08.678Z,975.07
2017-10-02T02:41:18.623Z,975.02
2017-10-02T02:42:28.898Z,974.91
2017-10-02T02:43:38.846Z,974.84
2017-10-02T02:44:49.135Z,974.8
2017-10-02T02:45:59.091Z,974.76
2017-10-02T02:47:08.721Z,974.89
2017-10-02T02:48:18.992Z,974.77
2017-10-02T02:49:28.625Z,974.77
2017-10-02T02:50:38.898Z,974.73
2017-10-02T02:51:48.854Z,974.73
2017-10-02T02:52:59.138Z,974.61
2017-10-02T02:54:09.089Z,974.52
2017-10-02T02:55:19.367Z,974.61
2017-10-02T02:56:29.313Z,974.57
2017-10-02T02:57:39.270Z,974.51
2017-10-02T02:58:49.222Z,974.39
2017-10-02T02:59:59.488Z,974.41
2017-10-02T03:01:09.441Z,974.3
2017-10-02T03:02:19.736Z,974.42
2017-10-02T03:03:30.014Z,974.43
2017-10-02T03:04:40.290Z,974.37
2017-10-02T03:05:50.236Z,974.38
2017-10-02T03:07:00.193Z,974.29
2017-10-02T03:08:10.144Z,974.23
2017-10-02T03:09:20.092Z,974.23
2017-10-02T03:10:30.045Z,974.32
2017-10-02T03:11:39.994Z,974.23
2017-10-02T03:12:49.943Z,974.19
2017-10-02T03:14:00.214Z,974.11
2017-10-02T03:15:10.489Z,974.17
2017-10-02T03:16:20.766Z,974.05
2017-10-02T03:17:30.714Z,974
2017-10-02T03:18:40.667Z,974
2017-10-02T03:19:50.612Z,973.95
2017-10-02T03:21:00.878Z,973.85
2017-10-02T03:22:11.163Z,973.95
2017-10-02T03:23:20.791Z,973.95
2017-10-02T03:24:31.090Z,973.95
2017-10-02T03:25:41.045Z,973.8
2017-10-02T03:26:51.323Z,973.77
2017-10-02T03:28:01.593Z,973.62
2017-10-02T03:29:11.868Z,973.65
2017-10-02T03:30:22.150Z,973.63
2017-10-02T03:31:31.779Z,973.52
2017-10-02T03:32:41.738Z,973.43
2017-10-02T03:33:51.692Z,973.42
2017-10-02T03:35:01.640Z,973.3
2017-10-02T03:36:11.908Z,973.25
2017-10-02T03:37:22.174Z,973.18
2017-10-02T03:38:32.442Z,973.22
2017-10-02T03:39:42.716Z,973.16
2017-10-02T03:40:52.668Z,973.11
2017-10-02T03:42:02.933Z,973.03
2017-10-02T03:43:12.884Z,972.99
2017-10-02T03:44:23.164Z,972.84
2017-10-02T03:45:33.436Z,972.88
2017-10-02T03:46:43.075Z,972.81
2017-10-02T03:47:53.347Z,972.69
2017-10-02T03:49:03.300Z,972.62
2017-10-02T03:50:13.572Z,972.55
2017-10-02T03:51:23.518Z,972.49
2017-10-02T03:52:33.790Z,972.62
2017-10-02T03:53:43.737Z,972.39
2017-10-02T03:54:53.687Z,972.61
2017-10-02T03:56:03.314Z,972.44
2017-10-02T03:57:12.937Z,972.31
2017-10-02T03:58:23.206Z,972.27
2017-10-02T03:59:33.167Z,972.3
2017-10-02T04:00:43.115Z,972.2
2017-10-02T04:01:52.738Z,972.17
2017-10-02T04:03:02.693Z,972.18
2017-10-02T04:04:12.639Z,972.13
2017-10-02T04:05:22.912Z,972.08
2017-10-02T04:06:32.866Z,972.06
2017-10-02T04:07:43.136Z,972.1
2017-10-02T04:08:53.080Z,971.98
2017-10-02T04:10:03.352Z,972.05
2017-10-02T04:11:13.303Z,972.04
2017-10-02T04:12:22.943Z,971.93
2017-10-02T04:13:33.215Z,971.92
2017-10-02T04:14:43.483Z,971.88
2017-10-02T04:15:53.765Z,971.86
2017-10-02T04:17:03.394Z,971.78
2017-10-02T04:18:13.337Z,971.84
2017-10-02T04:19:23.603Z,971.74
2017-10-02T04:20:33.866Z,971.8
2017-10-02T04:21:44.150Z,971.74
2017-10-02T04:22:54.417Z,971.77
2017-10-02T04:24:04.359Z,971.79
2017-10-02T04:25:14.629Z,971.73
2017-10-02T04:26:24.590Z,971.67
2017-10-02T04:27:34.861Z,971.62
2017-10-02T04:28:44.812Z,971.58
2017-10-02T04:29:54.447Z,971.68
2017-10-02T04:31:04.718Z,971.54
2017-10-02T04:32:14.992Z,971.55
2017-10-02T04:33:24.987Z,971.58
2017-10-02T04:34:34.619Z,971.54
2017-10-02T04:35:44.889Z,971.53
2017-10-02T04:36:54.837Z,971.48
2017-10-02T04:38:04.142Z,971.5
2017-10-02T04:39:14.423Z,971.53
2017-10-02T04:40:24.706Z,971.43
2017-10-02T04:41:34.657Z,971.46
2017-10-02T04:42:44.627Z,971.49
2017-10-02T04:43:54.263Z,971.5
2017-10-02T04:45:04.536Z,971.35
2017-10-02T04:46:14.493Z,971.31
2017-10-02T04:47:25.016Z,971.33
2017-10-02T04:48:34.972Z,971.37
2017-10-02T04:49:45.244Z,971.22
2017-10-02T04:50:54.874Z,971.19
2017-10-02T04:52:04.828Z,971.22
2017-10-02T04:53:14.459Z,971.16
2017-10-02T04:54:24.415Z,971.05
2017-10-02T04:55:34.689Z,971.14
2017-10-02T04:56:44.965Z,971.09
2017-10-02T04:57:54.914Z,971.08
2017-10-02T04:59:05.182Z,970.98
2017-10-02T05:00:14.805Z,970.95
2017-10-02T05:01:25.076Z,970.86
2017-10-02T05:02:35.352Z,970.93
2017-10-02T05:03:45.305Z,970.61
2017-10-02T05:04:55.580Z,970.71
2017-10-02T05:06:05.537Z,970.54
2017-10-02T05:07:15.163Z,970.63
2017-10-02T05:08:25.438Z,970.63
2017-10-02T05:09:35.388Z,970.72
2017-10-02T05:10:45.675Z,970.69
2017-10-02T05:11:55.301Z,970.68
2017-10-02T05:13:05.269Z,970.69
2017-10-02T05:14:15.221Z,970.64
2017-10-02T05:15:25.179Z,970.5
2017-10-02T05:16:35.449Z,970.52
2017-10-02T05:17:45.734Z,970.5
2017-10-02T05:18:56.013Z,970.51
2017-10-02T05:20:05.641Z,970.4
2017-10-02T05:21:15.592Z,970.47
2017-10-02T05:22:25.543Z,970.34
2017-10-02T05:23:35.490Z,970.43
2017-10-02T05:24:45.453Z,970.4
2017-10-02T05:25:55.412Z,970.36
2017-10-02T05:27:05.367Z,970.36
2017-10-02T05:28:15.337Z,970.28
2017-10-02T05:29:25.621Z,970.3
2017-10-02T05:30:35.569Z,970.19
2017-10-02T05:31:45.194Z,970.24
2017-10-02T05:32:55.145Z,970.18
2017-10-02T05:34:07.414Z,970.21
2017-10-02T05:35:17.683Z,970.1
2017-10-02T05:36:27.964Z,970.09
2017-10-02T05:37:38.236Z,969.97
2017-10-02T05:38:47.874Z,970.02
2017-10-02T05:39:58.143Z,970.09
2017-10-02T05:41:08.100Z,969.78
2017-10-02T05:42:18.373Z,969.82
2017-10-02T05:43:28.340Z,969.91
2017-10-02T05:44:38.625Z,969.78
2017-10-02T05:45:48.583Z,969.78
2017-10-02T05:46:58.537Z,969.87
2017-10-02T05:48:08.812Z,969.81
2017-10-02T05:49:18.777Z,969.71
2017-10-02T05:50:28.405Z,969.69
2017-10-02T05:51:38.689Z,969.68
2017-10-02T05:52:48.648Z,969.59
2017-10-02T05:53:58.595Z,969.55
2017-10-02T05:55:08.868Z,969.49
2017-10-02T05:56:19.139Z,969.52
2017-10-02T05:57:29.415Z,969.53
2017-10-02T05:58:39.386Z,969.38
2017-10-02T05:59:49.341Z,969.46
2017-10-02T06:00:58.973Z,969.21
2017-10-02T06:02:08.924Z,969.28
2017-10-02T06:03:18.552Z,969.38
2017-10-02T06:04:28.504Z,969.34
2017-10-02T06:05:38.783Z,969.33
2017-10-02T06:06:49.055Z,969.3
2017-10-02T06:07:59.328Z,969.16
2017-10-02T06:09:09.281Z,969.17
2017-10-02T06:10:19.238Z,969.23
2017-10-02T06:11:29.191Z,969.2
2017-10-02T06:12:39.143Z,968.91
2017-10-02T06:13:49.415Z,968.99
2017-10-02T06:14:59.374Z,968.93
2017-10-02T06:16:09.669Z,968.78
2017-10-02T06:17:19.971Z,968.85
2017-10-02T06:18:29.600Z,968.88
2017-10-02T06:19:39.875Z,968.85
2017-10-02T06:20:50.145Z,968.82
2017-10-02T06:21:59.774Z,968.66
2017-10-02T06:23:09.727Z,968.77
2017-10-02T06:24:20.001Z,968.71
2017-10-02T06:25:29.954Z,968.72
2017-10-02T06:26:39.581Z,968.67
2017-10-02T06:27:49.534Z,968.65
2017-10-02T06:28:59.804Z,968.59
2017-10-02T06:30:10.099Z,968.54
2017-10-02T06:31:20.361Z,968.64
2017-10-02T06:32:29.993Z,968.64
2017-10-02T06:33:39.943Z,968.54
2017-10-02T06:34:49.891Z,968.59
2017-10-02T06:35:59.523Z,968.48
2017-10-02T06:37:08.832Z,968.51
2017-10-02T06:38:19.102Z,968.38
2017-10-02T06:39:29.385Z,968.41
2017-10-02T06:40:39.669Z,968.45
2017-10-02T06:41:49.309Z,968.41
2017-10-02T06:42:59.258Z,968.39
2017-10-02T06:44:09.533Z,968.42
2017-10-02T06:45:19.811Z,968.38
2017-10-02T06:46:29.755Z,968.3
2017-10-02T06:47:39.712Z,968.34
2017-10-02T06:48:49.994Z,968.28
2017-10-02T06:49:59.945Z,968.27
2017-10-02T06:51:09.894Z,968.13
2017-10-02T06:52:19.535Z,968.14
2017-10-02T06:53:29.491Z,968.14
2017-10-02T06:54:39.437Z,968.11
2017-10-02T06:55:49.418Z,968.07
2017-10-02T06:56:59.691Z,968.07
2017-10-02T06:58:09.641Z,968.02
2017-10-02T06:59:19.283Z,967.94
2017-10-02T07:00:29.232Z,968.03
2017-10-02T07:01:39.187Z,967.9
2017-10-02T07:02:49.135Z,967.91
2017-10-02T07:03:58.765Z,967.95
2017-10-02T07:05:08.720Z,968
2017-10-02T07:06:18.997Z,967.94
2017-10-02T07:07:28.965Z,967.86
2017-10-02T07:08:39.242Z,967.77
2017-10-02T07:09:49.519Z,967.74
2017-10-02T07:10:59.474Z,967.72
2017-10-02T07:12:09.764Z,967.75
2017-10-02T07:13:19.392Z,967.69
2017-10-02T07:14:29.680Z,967.51
2017-10-02T07:15:39.630Z,967.7
2017-10-02T07:16:49.266Z,967.68
2017-10-02T07:17:58.891Z,967.64
2017-10-02T07:19:08.841Z,967.68
2017-10-02T07:20:18.801Z,967.66
2017-10-02T07:21:29.082Z,967.53
2017-10-02T07:22:39.399Z,967.54
2017-10-02T07:23:49.346Z,967.56
2017-10-02T07:24:58.975Z,967.54
2017-10-02T07:26:08.936Z,967.6
2017-10-02T07:27:19.209Z,967.49
2017-10-02T07:28:29.486Z,967.37
2017-10-02T07:29:39.453Z,967.32
2017-10-02T07:30:48.767Z,967.29
2017-10-02T07:31:59.036Z,967.15
2017-10-02T07:33:08.988Z,967.19
2017-10-02T07:34:19.258Z,967.07
2017-10-02T07:35:29.216Z,967.13
2017-10-02T07:36:39.494Z,967.04
2017-10-02T07:37:49.126Z,967.03
2017-10-02T07:38:59.072Z,967.06
2017-10-02T07:40:09.340Z,966.9
2017-10-02T07:41:18.971Z,967
2017-10-02T07:42:28.919Z,966.98
2017-10-02T07:43:39.197Z,966.81
2017-10-02T07:44:49.478Z,966.8
2017-10-02T07:45:59.750Z,966.88
2017-10-02T07:47:10.018Z,966.8
2017-10-02T07:48:19.972Z,966.71
2017-10-02T07:49:29.924Z,966.78
2017-10-02T07:50:39.868Z,966.59
2017-10-02T07:51:50.133Z,966.55
2017-10-02T07:53:00.400Z,966.58
2017-10-02T07:54:12.598Z,966.5
2017-10-02T07:55:22.870Z,966.5
2017-10-02T07:56:33.140Z,966.46
2017-10-02T07:57:43.409Z,966.47
2017-10-02T07:58:53.031Z,966.57
2017-10-02T08:00:02.981Z,966.54
2017-10-02T08:01:13.248Z,966.43
2017-10-02T08:02:23.202Z,966.46
2017-10-02T08:03:33.158Z,966.47
2017-10-02T08:04:43.429Z,966.43
2017-10-02T08:05:53.377Z,966.43
2017-10-02T08:07:03.649Z,966.32
2017-10-02T08:08:13.287Z,966.36
2017-10-02T08:09:23.237Z,966.36
2017-10-02T08:10:33.503Z,966.27
2017-10-02T08:11:43.472Z,966.4
2017-10-02T08:12:53.420Z,966.31
2017-10-02T08:14:03.696Z,966.26
2017-10-02T08:15:13.645Z,966.35
2017-10-02T08:16:23.917Z,966.22
2017-10-02T08:17:33.871Z,966.29
2017-10-02T08:18:43.825Z,966.28
2017-10-02T08:19:53.453Z,966.24
2017-10-02T08:21:03.401Z,966.13
2017-10-02T08:22:12.704Z,966.11
2017-10-02T08:23:22.969Z,966.07
2017-10-02T08:24:33.235Z,966.01
2017-10-02T08:25:43.507Z,965.94
2017-10-02T08:26:53.465Z,965.92
2017-10-02T08:28:03.739Z,965.79
2017-10-02T08:29:13.370Z,965.84
2017-10-02T08:30:23.637Z,965.89
2017-10-02T08:31:33.265Z,965.86
2017-10-02T08:32:43.538Z,965.96
2017-10-02T08:33:53.488Z,965.96
2017-10-02T08:35:03.760Z,965.89
2017-10-02T08:36:14.036Z,965.79
2017-10-02T08:37:23.669Z,965.8
2017-10-02T08:38:33.620Z,965.65
2017-10-02T08:39:43.889Z,965.59
2017-10-02T08:40:53.851Z,965.52
2017-10-02T08:42:03.481Z,965.49
2017-10-02T08:43:13.436Z,965.42
2017-10-02T08:44:23.717Z,965.28
2017-10-02T08:45:33.663Z,965.2
2017-10-02T08:46:43.933Z,965.23
2017-10-02T08:47:53.239Z,965.24
2017-10-02T08:49:03.194Z,965.03
2017-10-02T08:50:13.138Z,964.88
2017-10-02T08:51:23.409Z,964.67
2017-10-02T08:52:33.676Z,964.86
2017-10-02T08:53:42.981Z,964.72
2017-10-02T08:54:52.933Z,964.65
2017-10-02T08:56:03.212Z,964.59
2017-10-02T08:57:12.839Z,964.48
2017-10-02T08:58:22.786Z,964.47
2017-10-02T08:59:32.733Z,964.46
2017-10-02T09:00:42.685Z,964.25
2017-10-02T09:01:52.637Z,964.5
2017-10-02T09:03:02.586Z,964.55
2017-10-02T09:04:12.223Z,964.46
2017-10-02T09:05:22.490Z,964.46
2017-10-02T09:06:32.755Z,964.53
2017-10-02T09:07:43.020Z,964.51
2017-10-02T09:08:52.970Z,964.29
2017-10-02T09:10:02.924Z,964.55
2017-10-02T09:11:12.876Z,964.43
2017-10-02T09:12:22.504Z,964.52
2017-10-02T09:13:32.140Z,964.57
2017-10-02T09:14:42.095Z,964.5
2017-10-02T09:15:52.048Z,964.3
2017-10-02T09:17:02.319Z,964.21
2017-10-02T09:18:11.949Z,964.21
2017-10-02T09:19:21.898Z,964.2
2017-10-02T09:20:31.531Z,964.26
2017-10-02T09:21:41.852Z,964.2
2017-10-02T09:22:52.123Z,964.25
2017-10-02T09:24:02.392Z,964.06
2017-10-02T09:25:12.346Z,964.09
2017-10-02T09:26:22.633Z,963.97
2017-10-02T09:27:32.904Z,963.91
2017-10-02T09:28:43.243Z,963.9
2017-10-02T09:29:53.518Z,964
2017-10-02T09:31:03.467Z,964.12
2017-10-02T09:32:13.733Z,964.09
2017-10-02T09:33:23.035Z,964.16
2017-10-02T09:34:32.662Z,964.3
2017-10-02T09:35:42.941Z,964.37
2017-10-02T09:36:52.571Z,964.55
2017-10-02T09:38:02.198Z,964.62
2017-10-02T09:39:12.150Z,964.57
2017-10-02T09:40:22.104Z,964.64
2017-10-02T09:41:32.376Z,964.62
2017-10-02T09:42:42.648Z,964.57
2017-10-02T09:43:52.355Z,964.6
2017-10-02T09:45:02.630Z,964.74
2017-10-02T09:46:12.583Z,964.82
2017-10-02T09:47:22.532Z,964.76
2017-10-02T09:48:32.807Z,964.8
2017-10-02T09:49:42.754Z,964.82
2017-10-02T09:50:52.380Z,964.77
2017-10-02T09:52:02.656Z,964.86
2017-10-02T09:53:12.605Z,964.84
2017-10-02T09:54:22.881Z,964.89
2017-10-02T09:55:33.149Z,964.83
2017-10-02T09:56:42.775Z,964.74
2017-10-02T09:57:52.724Z,964.74
2017-10-02T09:59:03.004Z,964.69
2017-10-02T10:00:12.978Z,964.72
2017-10-02T10:01:22.929Z,964.68
2017-10-02T10:02:33.207Z,964.56
2017-10-02T10:03:43.479Z,964.68
2017-10-02T10:04:53.449Z,964.63
2017-10-02T10:06:03.398Z,964.78
2017-10-02T10:07:13.029Z,964.79
2017-10-02T10:08:23.298Z,964.71
2017-10-02T10:09:32.925Z,964.6
2017-10-02T10:10:42.874Z,964.78
2017-10-02T10:11:53.147Z,964.65
2017-10-02T10:13:03.418Z,964.68
2017-10-02T10:14:13.370Z,964.68
2017-10-02T10:15:23.644Z,964.58
2017-10-02T10:16:33.272Z,964.67
2017-10-02T10:17:43.231Z,964.56
2017-10-02T10:18:53.182Z,964.56
2017-10-02T10:20:03.462Z,964.55
2017-10-02T10:21:13.731Z,964.58
2017-10-02T10:22:23.677Z,964.56
2017-10-02T10:23:33.305Z,964.63
2017-10-02T10:24:43.258Z,964.69
2017-10-02T10:25:53.532Z,964.65
2017-10-02T10:27:02.839Z,964.7
2017-10-02T10:28:12.787Z,964.64
2017-10-02T10:29:22.099Z,964.67
2017-10-02T10:30:32.051Z,964.62
2017-10-02T10:31:42.331Z,964.54
2017-10-02T10:32:52.606Z,964.59
2017-10-02T10:34:02.880Z,964.61
2017-10-02T10:35:13.157Z,964.58
2017-10-02T10:36:23.433Z,964.52
2017-10-02T10:37:33.713Z,964.52
2017-10-02T10:38:43.991Z,964.5
2017-10-02T10:39:53.940Z,964.36
2017-10-02T10:41:03.895Z,964.46
2017-10-02T10:42:13.535Z,964.41
2017-10-02T10:43:23.834Z,964.43
2017-10-02T10:44:33.784Z,964.49
2017-10-02T10:45:44.055Z,964.44
2017-10-02T10:46:54.000Z,964.44
2017-10-02T10:48:04.283Z,964.38
2017-10-02T10:49:14.236Z,964.4
2017-10-02T10:50:23.864Z,964.37
2017-10-02T10:51:34.137Z,964.38
2017-10-02T10:52:44.413Z,964.35
2017-10-02T10:53:54.042Z,964.33
2017-10-02T10:55:04.320Z,964.35
2017-10-02T10:56:14.272Z,964.29
2017-10-02T10:57:24.551Z,964.34
2017-10-02T10:58:34.504Z,964.35
2017-10-02T10:59:44.780Z,964.26
2017-10-02T11:00:54.738Z,964.3
2017-10-02T11:02:04.363Z,964.23
2017-10-02T11:03:13.994Z,964.26
2017-10-02T11:04:23.622Z,964.26
2017-10-02T11:05:33.584Z,964.24
2017-10-02T11:06:43.863Z,964.16
2017-10-02T11:07:53.173Z,964.22
2017-10-02T11:09:03.127Z,964.16
2017-10-02T11:10:13.082Z,964.14
2017-10-02T11:11:23.357Z,964.15
2017-10-02T11:12:33.305Z,964.11
2017-10-02T11:13:42.936Z,964.16
2017-10-02T11:14:53.224Z,964.17
2017-10-02T11:16:03.178Z,964.15
2017-10-02T11:17:12.813Z,964.12
2017-10-02T11:18:22.123Z,964.09
2017-10-02T11:19:31.779Z,964.06
2017-10-02T11:20:42.055Z,964.09
2017-10-02T11:21:52.337Z,963.95
2017-10-02T11:23:02.625Z,963.94
2017-10-02T11:24:12.577Z,963.97
2017-10-02T11:25:22.850Z,963.86
2017-10-02T11:26:33.126Z,963.85
2017-10-02T11:27:43.078Z,963.88
2017-10-02T11:28:53.351Z,963.93
2017-10-02T11:30:03.306Z,963.87
2017-10-02T11:31:13.579Z,963.85
2017-10-02T11:32:23.208Z,963.83
2017-10-02T11:33:33.480Z,963.87
2017-10-02T11:34:43.114Z,963.84
2017-10-02T11:35:53.071Z,963.86
2017-10-02T11:37:03.031Z,963.85
2017-10-02T11:38:12.659Z,963.8
2017-10-02T11:39:22.284Z,963.78
2017-10-02T11:40:32.242Z,963.79
2017-10-02T11:41:42.193Z,963.74
2017-10-02T11:42:52.479Z,963.75
2017-10-02T11:44:02.439Z,963.74
2017-10-02T11:45:12.715Z,963.65
2017-10-02T11:46:22.665Z,963.61
2017-10-02T11:47:32.620Z,963.66
2017-10-02T11:48:42.891Z,963.59
2017-10-02T11:49:52.841Z,963.66
2017-10-02T11:51:02.806Z,963.74
2017-10-02T11:52:12.756Z,963.59
2017-10-02T11:53:23.022Z,963.61
2017-10-02T11:54:33.297Z,963.61
2017-10-02T11:55:43.568Z,963.55
2017-10-02T11:56:53.197Z,963.53
2017-10-02T11:58:03.156Z,963.53
2017-10-02T11:59:13.425Z,963.4
2017-10-02T12:00:23.377Z,963.39
2017-10-02T12:01:33.655Z,963.36
2017-10-02T12:02:43.940Z,963.31
2017-10-02T12:03:54.211Z,963.29
2017-10-02T12:05:04.480Z,963.27
2017-10-02T12:06:14.433Z,963.19
2017-10-02T12:07:23.741Z,963.16
2017-10-02T12:08:34.013Z,963.14
2017-10-02T12:09:43.964Z,963.18
2017-10-02T12:10:53.915Z,963.13
2017-10-02T12:12:04.192Z,963.17
2017-10-02T12:13:14.141Z,963.22
2017-10-02T12:14:24.422Z,963.15
2017-10-02T12:15:34.701Z,963.17
2017-10-02T12:16:44.659Z,963.18
2017-10-02T12:17:54.939Z,963.19
2017-10-02T12:19:05.212Z,963.23
2017-10-02T12:20:15.492Z,963.24
2017-10-02T12:21:25.443Z,963.05
2017-10-02T12:22:35.720Z,963.15
2017-10-02T12:23:45.996Z,963.14
2017-10-02T12:24:56.285Z,963.08
2017-10-02T12:26:06.560Z,963.03
2017-10-02T12:27:16.841Z,962.96
2017-10-02T12:28:26.894Z,962.99
2017-10-02T12:29:37.163Z,963
2017-10-02T12:30:47.441Z,962.9
2017-10-02T12:31:57.070Z,962.93
2017-10-02T12:33:07.022Z,962.91
2017-10-02T12:34:17.294Z,962.85
2017-10-02T12:35:27.569Z,962.87
2017-10-02T12:36:37.518Z,962.85
2017-10-02T12:37:47.786Z,962.81
2017-10-02T12:38:57.748Z,962.83
2017-10-02T12:40:08.030Z,963.01
2017-10-02T12:41:18.302Z,963.12
2017-10-02T12:42:27.936Z,963.07
2017-10-02T12:43:38.213Z,962.96
2017-10-02T12:44:48.170Z,962.91
2017-10-02T12:45:58.445Z,962.89
2017-10-02T12:47:08.720Z,962.84
2017-10-02T12:48:18.355Z,962.84
2017-10-02T12:49:28.634Z,962.87
2017-10-02T12:50:38.585Z,962.86
2017-10-02T12:51:48.869Z,962.87
2017-10-02T12:52:58.856Z,962.92
2017-10-02T12:54:09.131Z,962.91
2017-10-02T12:55:18.762Z,962.94
2017-10-02T12:56:28.726Z,962.78
2017-10-02T12:57:39.001Z,962.72
2017-10-02T12:58:49.278Z,962.72
2017-10-02T12:59:59.247Z,962.81
2017-10-02T13:01:09.530Z,962.78
2017-10-02T13:02:19.809Z,962.84
2017-10-02T13:03:29.445Z,962.84
2017-10-02T13:04:39.403Z,962.86
2017-10-02T13:05:49.674Z,962.88
2017-10-02T13:06:59.631Z,962.87
2017-10-02T13:08:09.267Z,962.8
2017-10-02T13:09:19.582Z,962.78
2017-10-02T13:10:28.383Z,962.74
2017-10-02T13:11:38.335Z,962.88
2017-10-02T13:12:48.287Z,962.81
2017-10-02T13:13:58.242Z,962.84
2017-10-02T13:15:08.203Z,962.87
2017-10-02T13:16:17.835Z,962.85
2017-10-02T13:17:27.791Z,962.84
2017-10-02T13:18:38.074Z,962.81
2017-10-02T13:19:47.382Z,962.83
2017-10-02T13:20:57.345Z,962.9
2017-10-02T13:22:07.315Z,962.94
2017-10-02T13:23:16.948Z,962.89
2017-10-02T13:24:26.902Z,962.86
2017-10-02T13:25:37.184Z,962.87
2017-10-02T13:26:47.140Z,962.99
2017-10-02T13:27:57.090Z,963.02
2017-10-02T13:29:07.035Z,962.91
2017-10-02T13:30:17.313Z,962.93
2017-10-02T13:31:27.589Z,962.92
2017-10-02T13:32:37.558Z,962.85
2017-10-02T13:33:47.504Z,962.83
2017-10-02T13:34:57.476Z,962.88
2017-10-02T13:36:07.759Z,962.79
2017-10-02T13:37:18.031Z,962.71
2017-10-02T13:38:28.304Z,962.82
2017-10-02T13:39:38.258Z,962.76
2017-10-02T13:40:48.214Z,962.77
2017-10-02T13:41:58.542Z,962.82
2017-10-02T13:43:08.178Z,962.76
2017-10-02T13:44:17.807Z,962.81
2017-10-02T13:45:27.484Z,962.82
2017-10-02T13:46:37.120Z,962.69
2017-10-02T13:47:47.076Z,962.63
2017-10-02T13:48:57.057Z,962.62
2017-10-02T13:50:07.331Z,962.65
2017-10-02T13:51:16.962Z,962.65
2017-10-02T13:52:27.239Z,962.56
2017-10-02T13:53:37.192Z,962.61
2017-10-02T13:54:47.156Z,962.59
2017-10-02T13:55:56.468Z,962.56
2017-10-02T13:57:06.112Z,962.62
2017-10-02T13:58:15.746Z,962.63
2017-10-02T13:59:26.029Z,962.62
2017-10-02T14:00:36.014Z,962.61
2017-10-02T14:01:46.285Z,962.55
2017-10-02T14:02:56.559Z,962.57
2017-10-02T14:04:06.524Z,962.57
2017-10-02T14:05:16.797Z,962.54
2017-10-02T14:06:26.430Z,962.52
2017-10-02T14:07:36.702Z,962.49
2017-10-02T14:08:46.649Z,962.49
2017-10-02T14:09:56.281Z,962.48
2017-10-02T14:11:06.553Z,962.49
2017-10-02T14:12:16.507Z,962.41
2017-10-02T14:13:26.140Z,962.43
2017-10-02T14:14:36.092Z,962.47
2017-10-02T14:15:46.383Z,962.48
2017-10-02T14:16:56.659Z,962.5
2017-10-02T14:18:06.621Z,962.45
2017-10-02T14:19:16.250Z,962.38
2017-10-02T14:20:26.533Z,962.4
2017-10-02T14:21:36.483Z,962.42
2017-10-02T14:22:46.752Z,962.45
2017-10-02T14:23:57.030Z,962.43
2017-10-02T14:25:07.302Z,962.43
2017-10-02T14:26:17.264Z,962.42
2017-10-02T14:27:27.246Z,962.45
2017-10-02T14:28:37.527Z,962.41
2017-10-02T14:29:46.836Z,962.37
2017-10-02T14:30:57.139Z,962.38
2017-10-02T14:32:07.094Z,962.35
2017-10-02T14:33:17.376Z,962.37
2017-10-02T14:34:27.328Z,962.37
2017-10-02T14:35:36.960Z,962.33
2017-10-02T14:36:46.591Z,962.33